sensor_id;sensor_type;location;lat;lon;timestamp;P1;durP1;ratioP1;P2;durP2;ratioP2
18322;SDS011;9287;49.456;11.064;2023-02-15T00:02:04;31.67;;;19.80;;
18322;SDS011;9287;49.456;11.064;2023-02-15T00:04:32;32.53;;;19.90;;
18322;SDS011;9287;49.456;11.064;2023-02-15T00:07:16;33.07;;;19.87;;
18322;SDS011;9287;49.456;11.064;2023-02-15T00:09:45;29.37;;;19.47;;
18322;SDS011;9287;49.456;11.064;2023-02-15T00:12:14;31.37;;;19.70;;
18322;SDS011;9287;49.456;11.064;2023-02-15T00:14:42;28.23;;;19.07;;
18322;SDS011;9287;49.456;11.064;2023-02-15T00:17:11;33.47;;;20.00;;
18322;SDS011;9287;49.456;11.064;2023-02-15T00:19:39;31.50;;;19.83;;
18322;SDS011;9287;49.456;11.064;2023-02-15T00:22:07;28.93;;;18.37;;
18322;SDS011;9287;49.456;11.064;2023-02-15T00:24:34;30.30;;;19.20;;
18322;SDS011;9287;49.456;11.064;2023-02-15T00:27:02;28.93;;;18.40;;
18322;SDS011;9287;49.456;11.064;2023-02-15T00:29:30;25.33;;;16.53;;
18322;SDS011;9287;49.456;11.064;2023-02-15T00:31:58;26.00;;;17.57;;
18322;SDS011;9287;49.456;11.064;2023-02-15T00:34:27;31.67;;;17.77;;
18322;SDS011;9287;49.456;11.064;2023-02-15T00:36:55;26.77;;;17.80;;
18322;SDS011;9287;49.456;11.064;2023-02-15T00:39:23;25.80;;;17.47;;
18322;SDS011;9287;49.456;11.064;2023-02-15T00:41:51;25.97;;;17.57;;
18322;SDS011;9287;49.456;11.064;2023-02-15T00:44:19;28.23;;;17.67;;
18322;SDS011;9287;49.456;11.064;2023-02-15T00:46:47;25.67;;;16.83;;
18322;SDS011;9287;49.456;11.064;2023-02-15T00:49:15;28.07;;;17.80;;
18322;SDS011;9287;49.456;11.064;2023-02-15T00:51:44;30.73;;;17.47;;
18322;SDS011;9287;49.456;11.064;2023-02-15T00:54:11;24.60;;;15.63;;
18322;SDS011;9287;49.456;11.064;2023-02-15T00:56:39;27.77;;;16.77;;
18322;SDS011;9287;49.456;11.064;2023-02-15T00:59:07;27.30;;;17.67;;
18322;SDS011;9287;49.456;11.064;2023-02-15T01:01:35;26.60;;;17.07;;
18322;SDS011;9287;49.456;11.064;2023-02-15T01:04:03;25.83;;;17.10;;
18322;SDS011;9287;49.456;11.064;2023-02-15T01:06:31;25.70;;;16.20;;
18322;SDS011;9287;49.456;11.064;2023-02-15T01:09:00;24.40;;;16.83;;
18322;SDS011;9287;49.456;11.064;2023-02-15T01:11:28;27.70;;;17.00;;
18322;SDS011;9287;49.456;11.064;2023-02-15T01:13:57;27.47;;;16.67;;
18322;SDS011;9287;49.456;11.064;2023-02-15T01:16:25;24.50;;;16.30;;
18322;SDS011;9287;49.456;11.064;2023-02-15T01:18:55;29.57;;;16.60;;
18322;SDS011;9287;49.456;11.064;2023-02-15T01:21:23;30.93;;;18.07;;
18322;SDS011;9287;49.456;11.064;2023-02-15T01:23:53;30.03;;;17.67;;
18322;SDS011;9287;49.456;11.064;2023-02-15T01:26:22;24.77;;;16.30;;
18322;SDS011;9287;49.456;11.064;2023-02-15T01:28:50;28.70;;;17.10;;
18322;SDS011;9287;49.456;11.064;2023-02-15T01:31:18;26.93;;;17.20;;
18322;SDS011;9287;49.456;11.064;2023-02-15T01:33:47;24.47;;;15.47;;
18322;SDS011;9287;49.456;11.064;2023-02-15T01:36:15;29.00;;;17.53;;
18322;SDS011;9287;49.456;11.064;2023-02-15T01:38:45;28.97;;;17.57;;
18322;SDS011;9287;49.456;11.064;2023-02-15T01:41:13;28.40;;;17.60;;
18322;SDS011;9287;49.456;11.064;2023-02-15T01:43:51;25.70;;;16.97;;
18322;SDS011;9287;49.456;11.064;2023-02-15T01:46:22;31.27;;;18.67;;
18322;SDS011;9287;49.456;11.064;2023-02-15T01:48:54;26.63;;;16.67;;
18322;SDS011;9287;49.456;11.064;2023-02-15T01:51:27;28.17;;;16.40;;
18322;SDS011;9287;49.456;11.064;2023-02-15T01:53:59;26.93;;;16.40;;
18322;SDS011;9287;49.456;11.064;2023-02-15T01:56:30;27.90;;;17.70;;
18322;SDS011;9287;49.456;11.064;2023-02-15T01:59:03;27.97;;;17.60;;
18322;SDS011;9287;49.456;11.064;2023-02-15T02:01:35;29.40;;;18.80;;
18322;SDS011;9287;49.456;11.064;2023-02-15T02:04:05;31.33;;;16.90;;
18322;SDS011;9287;49.456;11.064;2023-02-15T02:06:39;27.77;;;17.60;;
18322;SDS011;9287;49.456;11.064;2023-02-15T02:09:07;28.33;;;17.27;;
18322;SDS011;9287;49.456;11.064;2023-02-15T02:11:36;27.90;;;17.67;;
18322;SDS011;9287;49.456;11.064;2023-02-15T02:14:09;28.27;;;18.17;;
18322;SDS011;9287;49.456;11.064;2023-02-15T02:16:38;28.17;;;17.30;;
18322;SDS011;9287;49.456;11.064;2023-02-15T02:19:26;29.07;;;18.23;;
18322;SDS011;9287;49.456;11.064;2023-02-15T02:22:39;31.47;;;19.23;;
18322;SDS011;9287;49.456;11.064;2023-02-15T02:25:38;31.23;;;19.07;;
18322;SDS011;9287;49.456;11.064;2023-02-15T02:28:46;28.07;;;17.33;;
18322;SDS011;9287;49.456;11.064;2023-02-15T02:31:35;30.70;;;18.33;;
18322;SDS011;9287;49.456;11.064;2023-02-15T02:34:13;30.60;;;18.33;;
18322;SDS011;9287;49.456;11.064;2023-02-15T02:36:48;27.60;;;17.33;;
18322;SDS011;9287;49.456;11.064;2023-02-15T02:39:22;28.47;;;17.63;;
18322;SDS011;9287;49.456;11.064;2023-02-15T02:41:59;29.70;;;18.60;;
18322;SDS011;9287;49.456;11.064;2023-02-15T02:44:34;29.80;;;19.23;;
18322;SDS011;9287;49.456;11.064;2023-02-15T02:47:10;28.93;;;17.83;;
18322;SDS011;9287;49.456;11.064;2023-02-15T02:49:42;28.47;;;18.00;;
18322;SDS011;9287;49.456;11.064;2023-02-15T02:55:02;31.53;;;19.43;;
18322;SDS011;9287;49.456;11.064;2023-02-15T02:57:33;28.27;;;17.50;;
18322;SDS011;9287;49.456;11.064;2023-02-15T03:00:04;30.67;;;17.10;;
18322;SDS011;9287;49.456;11.064;2023-02-15T03:02:35;31.73;;;18.33;;
18322;SDS011;9287;49.456;11.064;2023-02-15T03:05:11;30.07;;;17.80;;
18322;SDS011;9287;49.456;11.064;2023-02-15T03:07:42;30.43;;;17.13;;
18322;SDS011;9287;49.456;11.064;2023-02-15T03:10:13;27.83;;;16.10;;
18322;SDS011;9287;49.456;11.064;2023-02-15T03:12:41;27.00;;;15.23;;
18322;SDS011;9287;49.456;11.064;2023-02-15T03:15:10;26.10;;;15.70;;
18322;SDS011;9287;49.456;11.064;2023-02-15T03:17:43;27.20;;;17.33;;
18322;SDS011;9287;49.456;11.064;2023-02-15T03:20:17;28.90;;;17.67;;
18322;SDS011;9287;49.456;11.064;2023-02-15T03:22:48;29.50;;;16.10;;
18322;SDS011;9287;49.456;11.064;2023-02-15T03:25:20;29.73;;;17.70;;
18322;SDS011;9287;49.456;11.064;2023-02-15T03:27:52;28.23;;;16.73;;
18322;SDS011;9287;49.456;11.064;2023-02-15T03:30:22;28.87;;;18.57;;
18322;SDS011;9287;49.456;11.064;2023-02-15T03:32:52;29.67;;;17.60;;
18322;SDS011;9287;49.456;11.064;2023-02-15T03:35:22;31.53;;;16.93;;
18322;SDS011;9287;49.456;11.064;2023-02-15T03:37:53;31.87;;;17.07;;
18322;SDS011;9287;49.456;11.064;2023-02-15T03:40:26;32.63;;;18.83;;
18322;SDS011;9287;49.456;11.064;2023-02-15T03:43:15;27.87;;;18.00;;
18322;SDS011;9287;49.456;11.064;2023-02-15T03:45:51;26.27;;;16.37;;
18322;SDS011;9287;49.456;11.064;2023-02-15T03:48:23;29.77;;;17.50;;
18322;SDS011;9287;49.456;11.064;2023-02-15T03:50:55;28.30;;;15.97;;
18322;SDS011;9287;49.456;11.064;2023-02-15T03:53:44;26.87;;;16.70;;
18322;SDS011;9287;49.456;11.064;2023-02-15T03:56:14;27.07;;;16.33;;
18322;SDS011;9287;49.456;11.064;2023-02-15T03:58:41;26.00;;;16.77;;
18322;SDS011;9287;49.456;11.064;2023-02-15T04:01:27;23.33;;;16.10;;
18322;SDS011;9287;49.456;11.064;2023-02-15T04:04:19;22.67;;;15.40;;
18322;SDS011;9287;49.456;11.064;2023-02-15T04:06:52;23.67;;;15.73;;
18322;SDS011;9287;49.456;11.064;2023-02-15T04:09:19;21.73;;;14.57;;
18322;SDS011;9287;49.456;11.064;2023-02-15T04:12:05;23.77;;;15.27;;
18322;SDS011;9287;49.456;11.064;2023-02-15T04:14:32;22.23;;;14.13;;
18322;SDS011;9287;49.456;11.064;2023-02-15T04:17:18;21.60;;;14.13;;
18322;SDS011;9287;49.456;11.064;2023-02-15T04:19:45;20.97;;;14.60;;
18322;SDS011;9287;49.456;11.064;2023-02-15T04:22:32;21.90;;;13.53;;
18322;SDS011;9287;49.456;11.064;2023-02-15T04:25:18;21.63;;;13.20;;
18322;SDS011;9287;49.456;11.064;2023-02-15T04:27:47;19.77;;;14.07;;
18322;SDS011;9287;49.456;11.064;2023-02-15T04:30:17;21.13;;;14.47;;
18322;SDS011;9287;49.456;11.064;2023-02-15T04:32:47;18.20;;;12.67;;
18322;SDS011;9287;49.456;11.064;2023-02-15T04:35:15;19.47;;;13.60;;
18322;SDS011;9287;49.456;11.064;2023-02-15T04:37:44;19.83;;;14.13;;
18322;SDS011;9287;49.456;11.064;2023-02-15T04:40:12;20.67;;;13.47;;
18322;SDS011;9287;49.456;11.064;2023-02-15T04:42:46;19.60;;;13.13;;
18322;SDS011;9287;49.456;11.064;2023-02-15T04:45:14;17.03;;;12.57;;
18322;SDS011;9287;49.456;11.064;2023-02-15T04:47:42;18.87;;;12.70;;
18322;SDS011;9287;49.456;11.064;2023-02-15T04:50:10;16.90;;;11.80;;
18322;SDS011;9287;49.456;11.064;2023-02-15T04:52:38;20.33;;;13.50;;
18322;SDS011;9287;49.456;11.064;2023-02-15T04:55:08;19.07;;;13.23;;
18322;SDS011;9287;49.456;11.064;2023-02-15T04:57:35;20.93;;;14.23;;
18322;SDS011;9287;49.456;11.064;2023-02-15T05:00:03;20.83;;;14.77;;
18322;SDS011;9287;49.456;11.064;2023-02-15T05:02:32;21.43;;;15.23;;
18322;SDS011;9287;49.456;11.064;2023-02-15T05:04:59;21.17;;;14.77;;
18322;SDS011;9287;49.456;11.064;2023-02-15T05:07:27;21.77;;;13.73;;
18322;SDS011;9287;49.456;11.064;2023-02-15T05:09:55;19.20;;;13.20;;
18322;SDS011;9287;49.456;11.064;2023-02-15T05:12:24;20.87;;;14.47;;
18322;SDS011;9287;49.456;11.064;2023-02-15T05:14:52;22.77;;;14.90;;
18322;SDS011;9287;49.456;11.064;2023-02-15T05:17:19;19.20;;;14.17;;
18322;SDS011;9287;49.456;11.064;2023-02-15T05:19:47;22.40;;;14.90;;
18322;SDS011;9287;49.456;11.064;2023-02-15T05:22:15;21.43;;;14.17;;
18322;SDS011;9287;49.456;11.064;2023-02-15T05:24:42;21.27;;;15.40;;
18322;SDS011;9287;49.456;11.064;2023-02-15T05:27:29;24.63;;;16.27;;
18322;SDS011;9287;49.456;11.064;2023-02-15T05:30:14;26.27;;;18.20;;
18322;SDS011;9287;49.456;11.064;2023-02-15T05:32:42;25.53;;;18.17;;
18322;SDS011;9287;49.456;11.064;2023-02-15T05:35:11;25.50;;;18.87;;
18322;SDS011;9287;49.456;11.064;2023-02-15T05:37:40;25.77;;;18.10;;
18322;SDS011;9287;49.456;11.064;2023-02-15T05:40:09;25.20;;;18.57;;
18322;SDS011;9287;49.456;11.064;2023-02-15T05:42:38;26.00;;;17.97;;
18322;SDS011;9287;49.456;11.064;2023-02-15T05:45:06;26.00;;;17.80;;
18322;SDS011;9287;49.456;11.064;2023-02-15T05:47:34;24.50;;;16.90;;
18322;SDS011;9287;49.456;11.064;2023-02-15T05:50:02;26.03;;;17.47;;
18322;SDS011;9287;49.456;11.064;2023-02-15T05:52:30;26.57;;;16.87;;
18322;SDS011;9287;49.456;11.064;2023-02-15T05:54:57;24.27;;;16.60;;
18322;SDS011;9287;49.456;11.064;2023-02-15T05:57:26;24.00;;;16.57;;
18322;SDS011;9287;49.456;11.064;2023-02-15T05:59:55;25.43;;;17.23;;
18322;SDS011;9287;49.456;11.064;2023-02-15T06:02:23;25.43;;;17.87;;
18322;SDS011;9287;49.456;11.064;2023-02-15T06:04:51;26.43;;;16.73;;
18322;SDS011;9287;49.456;11.064;2023-02-15T06:07:19;26.63;;;16.63;;
18322;SDS011;9287;49.456;11.064;2023-02-15T06:09:46;23.07;;;16.70;;
18322;SDS011;9287;49.456;11.064;2023-02-15T06:12:14;27.07;;;17.50;;
18322;SDS011;9287;49.456;11.064;2023-02-15T06:14:42;25.60;;;17.70;;
18322;SDS011;9287;49.456;11.064;2023-02-15T06:17:11;25.37;;;16.63;;
18322;SDS011;9287;49.456;11.064;2023-02-15T06:19:39;27.20;;;17.80;;
18322;SDS011;9287;49.456;11.064;2023-02-15T06:22:06;25.87;;;18.10;;
18322;SDS011;9287;49.456;11.064;2023-02-15T06:24:34;26.33;;;18.20;;
18322;SDS011;9287;49.456;11.064;2023-02-15T06:27:02;36.73;;;19.27;;
18322;SDS011;9287;49.456;11.064;2023-02-15T06:29:29;28.43;;;19.37;;
18322;SDS011;9287;49.456;11.064;2023-02-15T06:31:57;28.77;;;18.60;;
18322;SDS011;9287;49.456;11.064;2023-02-15T06:34:29;30.73;;;19.17;;
18322;SDS011;9287;49.456;11.064;2023-02-15T06:36:57;28.80;;;19.90;;
18322;SDS011;9287;49.456;11.064;2023-02-15T06:39:25;34.07;;;19.67;;
18322;SDS011;9287;49.456;11.064;2023-02-15T06:41:53;30.53;;;20.40;;
18322;SDS011;9287;49.456;11.064;2023-02-15T06:44:20;28.57;;;19.30;;
18322;SDS011;9287;49.456;11.064;2023-02-15T06:46:48;30.10;;;20.50;;
18322;SDS011;9287;49.456;11.064;2023-02-15T06:49:16;27.23;;;19.00;;
18322;SDS011;9287;49.456;11.064;2023-02-15T06:51:45;30.20;;;20.47;;
18322;SDS011;9287;49.456;11.064;2023-02-15T06:54:12;32.13;;;20.17;;
18322;SDS011;9287;49.456;11.064;2023-02-15T06:56:40;30.90;;;19.60;;
18322;SDS011;9287;49.456;11.064;2023-02-15T06:59:09;29.93;;;20.87;;
18322;SDS011;9287;49.456;11.064;2023-02-15T07:01:37;30.10;;;20.40;;
18322;SDS011;9287;49.456;11.064;2023-02-15T07:04:05;29.57;;;18.83;;
18322;SDS011;9287;49.456;11.064;2023-02-15T07:06:33;29.23;;;19.07;;
18322;SDS011;9287;49.456;11.064;2023-02-15T07:09:02;26.73;;;18.43;;
18322;SDS011;9287;49.456;11.064;2023-02-15T07:11:31;29.47;;;18.90;;
18322;SDS011;9287;49.456;11.064;2023-02-15T07:14:16;27.87;;;19.27;;
18322;SDS011;9287;49.456;11.064;2023-02-15T07:16:44;28.07;;;18.57;;
18322;SDS011;9287;49.456;11.064;2023-02-15T07:19:12;26.90;;;17.93;;
18322;SDS011;9287;49.456;11.064;2023-02-15T07:21:39;27.13;;;18.13;;
18322;SDS011;9287;49.456;11.064;2023-02-15T07:24:08;26.73;;;19.23;;
18322;SDS011;9287;49.456;11.064;2023-02-15T07:26:36;28.80;;;18.77;;
18322;SDS011;9287;49.456;11.064;2023-02-15T07:29:04;29.37;;;18.37;;
18322;SDS011;9287;49.456;11.064;2023-02-15T07:31:32;26.57;;;17.83;;
18322;SDS011;9287;49.456;11.064;2023-02-15T07:34:00;27.33;;;17.53;;
18322;SDS011;9287;49.456;11.064;2023-02-15T07:36:27;23.57;;;16.57;;
18322;SDS011;9287;49.456;11.064;2023-02-15T07:38:55;24.07;;;15.87;;
18322;SDS011;9287;49.456;11.064;2023-02-15T07:41:24;25.70;;;18.07;;
18322;SDS011;9287;49.456;11.064;2023-02-15T07:43:52;27.07;;;17.27;;
18322;SDS011;9287;49.456;11.064;2023-02-15T07:46:20;28.27;;;18.20;;
18322;SDS011;9287;49.456;11.064;2023-02-15T07:48:48;27.27;;;18.50;;
18322;SDS011;9287;49.456;11.064;2023-02-15T07:51:16;29.97;;;17.83;;
18322;SDS011;9287;49.456;11.064;2023-02-15T07:53:44;27.43;;;16.70;;
18322;SDS011;9287;49.456;11.064;2023-02-15T07:56:13;26.73;;;17.63;;
18322;SDS011;9287;49.456;11.064;2023-02-15T07:58:43;29.70;;;19.80;;
18322;SDS011;9287;49.456;11.064;2023-02-15T08:01:22;26.50;;;17.57;;
18322;SDS011;9287;49.456;11.064;2023-02-15T08:03:51;26.57;;;17.80;;
18322;SDS011;9287;49.456;11.064;2023-02-15T08:06:19;26.83;;;17.93;;
18322;SDS011;9287;49.456;11.064;2023-02-15T08:08:48;30.17;;;18.23;;
18322;SDS011;9287;49.456;11.064;2023-02-15T08:11:17;28.63;;;18.17;;
18322;SDS011;9287;49.456;11.064;2023-02-15T08:14:02;30.67;;;19.00;;
18322;SDS011;9287;49.456;11.064;2023-02-15T08:16:33;30.60;;;19.73;;
18322;SDS011;9287;49.456;11.064;2023-02-15T08:19:03;30.33;;;18.60;;
18322;SDS011;9287;49.456;11.064;2023-02-15T08:21:34;29.27;;;17.63;;
18322;SDS011;9287;49.456;11.064;2023-02-15T08:24:03;28.87;;;18.13;;
18322;SDS011;9287;49.456;11.064;2023-02-15T08:26:32;27.93;;;17.60;;
18322;SDS011;9287;49.456;11.064;2023-02-15T08:29:02;30.63;;;17.63;;
18322;SDS011;9287;49.456;11.064;2023-02-15T08:31:30;29.77;;;16.83;;
18322;SDS011;9287;49.456;11.064;2023-02-15T08:33:58;26.40;;;16.90;;
18322;SDS011;9287;49.456;11.064;2023-02-15T08:36:28;26.77;;;16.60;;
18322;SDS011;9287;49.456;11.064;2023-02-15T08:38:58;26.47;;;16.10;;
18322;SDS011;9287;49.456;11.064;2023-02-15T08:41:27;26.17;;;17.40;;
18322;SDS011;9287;49.456;11.064;2023-02-15T08:43:57;27.13;;;16.00;;
18322;SDS011;9287;49.456;11.064;2023-02-15T08:46:28;28.07;;;17.17;;
18322;SDS011;9287;49.456;11.064;2023-02-15T08:48:57;29.67;;;18.67;;
18322;SDS011;9287;49.456;11.064;2023-02-15T08:51:29;29.10;;;17.50;;
18322;SDS011;9287;49.456;11.064;2023-02-15T08:53:58;28.73;;;16.87;;
18322;SDS011;9287;49.456;11.064;2023-02-15T08:56:28;28.53;;;16.87;;
18322;SDS011;9287;49.456;11.064;2023-02-15T08:58:59;28.53;;;16.20;;
18322;SDS011;9287;49.456;11.064;2023-02-15T09:01:29;26.53;;;17.33;;
18322;SDS011;9287;49.456;11.064;2023-02-15T09:03:59;23.97;;;15.13;;
18322;SDS011;9287;49.456;11.064;2023-02-15T09:06:28;26.87;;;15.77;;
18322;SDS011;9287;49.456;11.064;2023-02-15T09:08:56;25.80;;;17.10;;
18322;SDS011;9287;49.456;11.064;2023-02-15T09:11:24;24.63;;;15.13;;
18322;SDS011;9287;49.456;11.064;2023-02-15T09:13:54;25.57;;;15.57;;
18322;SDS011;9287;49.456;11.064;2023-02-15T09:16:24;25.67;;;15.43;;
18322;SDS011;9287;49.456;11.064;2023-02-15T09:18:55;25.03;;;14.80;;
18322;SDS011;9287;49.456;11.064;2023-02-15T09:21:24;25.40;;;15.17;;
18322;SDS011;9287;49.456;11.064;2023-02-15T09:23:55;22.97;;;13.90;;
18322;SDS011;9287;49.456;11.064;2023-02-15T09:26:24;25.93;;;14.43;;
18322;SDS011;9287;49.456;11.064;2023-02-15T09:28:54;21.67;;;14.60;;
18322;SDS011;9287;49.456;11.064;2023-02-15T09:31:23;23.77;;;14.67;;
18322;SDS011;9287;49.456;11.064;2023-02-15T09:33:53;20.37;;;12.67;;
18322;SDS011;9287;49.456;11.064;2023-02-15T09:36:23;20.97;;;13.83;;
18322;SDS011;9287;49.456;11.064;2023-02-15T09:38:54;23.50;;;15.10;;
18322;SDS011;9287;49.456;11.064;2023-02-15T09:41:36;21.73;;;13.40;;
18322;SDS011;9287;49.456;11.064;2023-02-15T09:44:25;19.27;;;12.40;;
18322;SDS011;9287;49.456;11.064;2023-02-15T09:47:05;20.77;;;12.60;;
18322;SDS011;9287;49.456;11.064;2023-02-15T09:49:47;18.57;;;12.83;;
18322;SDS011;9287;49.456;11.064;2023-02-15T09:52:30;19.27;;;12.83;;
18322;SDS011;9287;49.456;11.064;2023-02-15T09:55:08;21.47;;;12.97;;
18322;SDS011;9287;49.456;11.064;2023-02-15T09:57:44;21.93;;;13.10;;
18322;SDS011;9287;49.456;11.064;2023-02-15T10:00:21;17.60;;;10.93;;
18322;SDS011;9287;49.456;11.064;2023-02-15T10:03:05;20.07;;;11.67;;
18322;SDS011;9287;49.456;11.064;2023-02-15T10:06:03;18.73;;;11.90;;
18322;SDS011;9287;49.456;11.064;2023-02-15T10:11:44;18.23;;;11.23;;
18322;SDS011;9287;49.456;11.064;2023-02-15T10:14:28;14.87;;;10.93;;
18322;SDS011;9287;49.456;11.064;2023-02-15T10:17:10;17.60;;;11.87;;
18322;SDS011;9287;49.456;11.064;2023-02-15T10:19:49;18.97;;;11.83;;
18322;SDS011;9287;49.456;11.064;2023-02-15T10:22:28;20.10;;;12.60;;
18322;SDS011;9287;49.456;11.064;2023-02-15T10:25:08;20.90;;;12.60;;
18322;SDS011;9287;49.456;11.064;2023-02-15T10:27:49;17.67;;;12.07;;
18322;SDS011;9287;49.456;11.064;2023-02-15T10:30:18;19.03;;;11.87;;
18322;SDS011;9287;49.456;11.064;2023-02-15T10:32:58;15.97;;;11.60;;
18322;SDS011;9287;49.456;11.064;2023-02-15T10:35:31;20.90;;;12.50;;
18322;SDS011;9287;49.456;11.064;2023-02-15T10:38:10;18.60;;;10.77;;
18322;SDS011;9287;49.456;11.064;2023-02-15T10:40:51;21.43;;;12.07;;
18322;SDS011;9287;49.456;11.064;2023-02-15T10:43:37;16.77;;;11.23;;
18322;SDS011;9287;49.456;11.064;2023-02-15T10:46:34;17.67;;;12.00;;
18322;SDS011;9287;49.456;11.064;2023-02-15T10:49:32;17.67;;;11.33;;
18322;SDS011;9287;49.456;11.064;2023-02-15T10:52:21;18.17;;;11.37;;
18322;SDS011;9287;49.456;11.064;2023-02-15T10:54:59;16.20;;;11.27;;
18322;SDS011;9287;49.456;11.064;2023-02-15T10:57:39;18.00;;;10.63;;
18322;SDS011;9287;49.456;11.064;2023-02-15T11:00:16;13.30;;;10.00;;
18322;SDS011;9287;49.456;11.064;2023-02-15T11:02:53;15.33;;;10.70;;
18322;SDS011;9287;49.456;11.064;2023-02-15T11:05:35;16.23;;;10.57;;
18322;SDS011;9287;49.456;11.064;2023-02-15T11:08:15;17.23;;;10.60;;
18322;SDS011;9287;49.456;11.064;2023-02-15T11:10:44;15.10;;;9.50;;
18322;SDS011;9287;49.456;11.064;2023-02-15T11:13:19;16.77;;;10.77;;
18322;SDS011;9287;49.456;11.064;2023-02-15T11:15:51;16.03;;;10.70;;
18322;SDS011;9287;49.456;11.064;2023-02-15T11:18:26;16.17;;;9.60;;
18322;SDS011;9287;49.456;11.064;2023-02-15T11:21:00;15.07;;;9.67;;
18322;SDS011;9287;49.456;11.064;2023-02-15T11:23:32;12.60;;;9.40;;
18322;SDS011;9287;49.456;11.064;2023-02-15T11:26:03;13.07;;;9.83;;
18322;SDS011;9287;49.456;11.064;2023-02-15T11:28:39;12.57;;;9.20;;
18322;SDS011;9287;49.456;11.064;2023-02-15T11:31:12;11.90;;;8.93;;
18322;SDS011;9287;49.456;11.064;2023-02-15T11:33:45;13.63;;;9.83;;
18322;SDS011;9287;49.456;11.064;2023-02-15T11:36:19;14.23;;;9.23;;
18322;SDS011;9287;49.456;11.064;2023-02-15T11:38:52;13.73;;;10.30;;
18322;SDS011;9287;49.456;11.064;2023-02-15T11:41:27;14.17;;;9.30;;
18322;SDS011;9287;49.456;11.064;2023-02-15T11:44:03;16.47;;;10.80;;
18322;SDS011;9287;49.456;11.064;2023-02-15T11:46:34;14.27;;;11.20;;
18322;SDS011;9287;49.456;11.064;2023-02-15T11:49:04;14.57;;;11.00;;
18322;SDS011;9287;49.456;11.064;2023-02-15T11:51:47;14.30;;;10.70;;
18322;SDS011;9287;49.456;11.064;2023-02-15T11:54:17;18.37;;;11.87;;
18322;SDS011;9287;49.456;11.064;2023-02-15T11:56:47;19.00;;;12.10;;
18322;SDS011;9287;49.456;11.064;2023-02-15T11:59:17;17.53;;;11.10;;
18322;SDS011;9287;49.456;11.064;2023-02-15T12:01:52;15.87;;;11.10;;
18322;SDS011;9287;49.456;11.064;2023-02-15T12:04:22;17.23;;;11.90;;
18322;SDS011;9287;49.456;11.064;2023-02-15T12:06:54;14.97;;;10.47;;
18322;SDS011;9287;49.456;11.064;2023-02-15T12:09:29;19.00;;;13.00;;
18322;SDS011;9287;49.456;11.064;2023-02-15T12:12:20;17.17;;;12.13;;
18322;SDS011;9287;49.456;11.064;2023-02-15T12:14:52;26.47;;;17.60;;
18322;SDS011;9287;49.456;11.064;2023-02-15T12:17:21;16.20;;;11.17;;
18322;SDS011;9287;49.456;11.064;2023-02-15T12:19:51;17.43;;;11.50;;
18322;SDS011;9287;49.456;11.064;2023-02-15T12:22:22;16.53;;;11.37;;
18322;SDS011;9287;49.456;11.064;2023-02-15T12:24:52;14.57;;;11.40;;
18322;SDS011;9287;49.456;11.064;2023-02-15T12:27:23;16.30;;;11.87;;
18322;SDS011;9287;49.456;11.064;2023-02-15T12:29:55;18.77;;;13.63;;
18322;SDS011;9287;49.456;11.064;2023-02-15T12:32:26;15.60;;;11.63;;
18322;SDS011;9287;49.456;11.064;2023-02-15T12:34:59;15.67;;;11.80;;
18322;SDS011;9287;49.456;11.064;2023-02-15T12:37:34;15.10;;;11.70;;
18322;SDS011;9287;49.456;11.064;2023-02-15T12:40:10;13.27;;;10.60;;
18322;SDS011;9287;49.456;11.064;2023-02-15T12:42:47;14.37;;;9.73;;
18322;SDS011;9287;49.456;11.064;2023-02-15T12:45:24;12.87;;;9.40;;
18322;SDS011;9287;49.456;11.064;2023-02-15T12:48:07;10.60;;;8.43;;
18322;SDS011;9287;49.456;11.064;2023-02-15T12:50:37;12.30;;;9.07;;
18322;SDS011;9287;49.456;11.064;2023-02-15T12:53:07;11.10;;;9.23;;
18322;SDS011;9287;49.456;11.064;2023-02-15T12:55:44;14.97;;;10.80;;
18322;SDS011;9287;49.456;11.064;2023-02-15T12:58:18;13.47;;;10.73;;
18322;SDS011;9287;49.456;11.064;2023-02-15T13:00:56;17.90;;;11.60;;
18322;SDS011;9287;49.456;11.064;2023-02-15T13:03:31;12.27;;;9.63;;
18322;SDS011;9287;49.456;11.064;2023-02-15T13:05:59;14.23;;;10.97;;
18322;SDS011;9287;49.456;11.064;2023-02-15T13:08:34;14.57;;;10.53;;
18322;SDS011;9287;49.456;11.064;2023-02-15T13:11:06;15.53;;;11.63;;
18322;SDS011;9287;49.456;11.064;2023-02-15T13:13:38;13.57;;;11.43;;
18322;SDS011;9287;49.456;11.064;2023-02-15T13:16:20;13.87;;;10.97;;
18322;SDS011;9287;49.456;11.064;2023-02-15T13:18:56;14.23;;;11.23;;
18322;SDS011;9287;49.456;11.064;2023-02-15T13:21:26;14.80;;;11.70;;
18322;SDS011;9287;49.456;11.064;2023-02-15T13:24:00;15.93;;;11.33;;
18322;SDS011;9287;49.456;11.064;2023-02-15T13:26:33;17.27;;;12.20;;
18322;SDS011;9287;49.456;11.064;2023-02-15T13:29:05;17.60;;;12.97;;
18322;SDS011;9287;49.456;11.064;2023-02-15T13:31:37;19.67;;;13.80;;
18322;SDS011;9287;49.456;11.064;2023-02-15T13:34:09;17.80;;;13.73;;
18322;SDS011;9287;49.456;11.064;2023-02-15T13:36:41;18.77;;;13.50;;
18322;SDS011;9287;49.456;11.064;2023-02-15T13:39:22;19.77;;;13.73;;
18322;SDS011;9287;49.456;11.064;2023-02-15T13:41:56;24.20;;;14.77;;
18322;SDS011;9287;49.456;11.064;2023-02-15T13:44:34;23.07;;;14.83;;
18322;SDS011;9287;49.456;11.064;2023-02-15T13:47:21;19.50;;;15.37;;
18322;SDS011;9287;49.456;11.064;2023-02-15T13:50:03;24.97;;;15.53;;
18322;SDS011;9287;49.456;11.064;2023-02-15T13:52:46;19.87;;;15.43;;
18322;SDS011;9287;49.456;11.064;2023-02-15T13:55:26;23.07;;;14.83;;
18322;SDS011;9287;49.456;11.064;2023-02-15T14:01:08;20.80;;;15.53;;
18322;SDS011;9287;49.456;11.064;2023-02-15T14:03:45;23.27;;;15.87;;
18322;SDS011;9287;49.456;11.064;2023-02-15T14:06:38;31.27;;;20.67;;
18322;SDS011;9287;49.456;11.064;2023-02-15T14:09:26;24.50;;;16.80;;
18322;SDS011;9287;49.456;11.064;2023-02-15T14:12:11;24.00;;;16.20;;
18322;SDS011;9287;49.456;11.064;2023-02-15T14:15:02;23.20;;;17.13;;
18322;SDS011;9287;49.456;11.064;2023-02-15T14:17:41;22.43;;;17.07;;
18322;SDS011;9287;49.456;11.064;2023-02-15T14:20:20;23.40;;;16.67;;
18322;SDS011;9287;49.456;11.064;2023-02-15T14:22:53;22.97;;;16.47;;
18322;SDS011;9287;49.456;11.064;2023-02-15T14:25:33;24.00;;;17.20;;
18322;SDS011;9287;49.456;11.064;2023-02-15T14:28:08;23.80;;;16.83;;
18322;SDS011;9287;49.456;11.064;2023-02-15T14:30:42;29.53;;;18.73;;
18322;SDS011;9287;49.456;11.064;2023-02-15T14:33:23;27.87;;;19.07;;
18322;SDS011;9287;49.456;11.064;2023-02-15T14:36:03;30.07;;;19.00;;
18322;SDS011;9287;49.456;11.064;2023-02-15T14:38:39;26.10;;;17.87;;
18322;SDS011;9287;49.456;11.064;2023-02-15T14:41:19;26.60;;;17.80;;
18322;SDS011;9287;49.456;11.064;2023-02-15T14:43:54;27.13;;;18.63;;
18322;SDS011;9287;49.456;11.064;2023-02-15T14:46:35;27.07;;;19.37;;
18322;SDS011;9287;49.456;11.064;2023-02-15T14:49:10;27.13;;;18.63;;
18322;SDS011;9287;49.456;11.064;2023-02-15T14:51:57;31.20;;;20.03;;
18322;SDS011;9287;49.456;11.064;2023-02-15T14:57:28;27.87;;;20.13;;
18322;SDS011;9287;49.456;11.064;2023-02-15T15:02:57;29.90;;;20.10;;
18322;SDS011;9287;49.456;11.064;2023-02-15T15:05:27;30.93;;;21.83;;
18322;SDS011;9287;49.456;11.064;2023-02-15T15:08:01;28.10;;;19.60;;
18322;SDS011;9287;49.456;11.064;2023-02-15T15:10:38;29.70;;;20.10;;